Huvudsida
METAR-TAF:

METAR-TAF

Flygplatser :

Cagliari, Italien

latitud: 39-15N, longitud: 009-04E, höjd: 4 m

Aktuellt väderrapport

Denna rapport gjordes för 24 minuter sedan, klockan 20:50 UTC
Vind 3 kt från nordväst
Temperatur 9°C
Fuktighet 100%
Tryck 1022 hPa
Sikt: 2500 m
grunt dimma

METAR: LIEE 262050Z 32003KT 2500 R32/0800VP1500U MIFG NSC 09/09 Q1022

Tid: 22:14 (21:14 UTC)

Väderprognos

Denna rapport gjordes för 4 timmar och 14 minuter sedan, klockan 17:00 UTC
Prognos gäller från 26 kl. 18 UTC till 27 kl. 18 UTC
Vind 5 kt varierande vindriktning
Sikt 10 km eller mer
Få moln på en höjd av 3000 ft
Temporärt
från 27 kl. 00 UTC till 27 kl. 08 UTC
Sikt: 0800 m
dimma

TAF: LIEE 261700Z 2618/2718 VRB05KT 9999 FEW030 TEMPO 2700/2708 0800 FG

Aktuella väderrapporter och prognoser från 4000 flygplatser (METAR- och TAF-rapporter).

De tillgängliga stationerna syns som gula och röda prickar på kartan.

För musen över prickarna för att se namnen på stationerna.

Klicka sedan för att få väderrapporter och prognoser.

För att ändra kartan: Klicka på de gröna knapparna med ett svart kors på för att zooma in; den gröna knappen med ett streck på för att zooma ut; eller på de gröna pilarna för angränsande kartor.


METAR-TAF: